Hauptseite
METAR-TAF:

METAR-TAF

Flughäfen :

Flughafen London Heathrow

London-Heathrow, England

Breite: 51-29N, Länge: 000-27W, Höhe: 24 m

Beobachtung

Neuester Wetterbericht von vor 13 Minuten, um 17:20 UTC
Wind 6 kt aus Nord/Nordwest, variierte zwischen West und Ost/Nordost
Temperatur 22°C
Luftfeuchtigkeit 33%
Luftdruck 1026 hPa
Sichtweite 10 km oder mehr

METAR: EGLL 231720Z AUTO 33006KT 280V060 9999 NCD 22/05 Q1026 NOSIG

Zeit: 18:33 (17:33 UTC)

Prognose

Neuester Wetterbericht von vor 6 Stunden und 39 Minuten, um 10:54 UTC
Gültige Prognose vom 23 um 12 UTC bis 24 um 18 UTC
Wind 10 kt aus Nordwest
Sichtweite 10 km oder mehr
keine Wolken unter 1500 m und keine Kumulonimbus oder Gewitterwolken
Übergehend zu
vom 24 um 15 UTC bis 24 um 18 UTC
Wind 5 kt aus Nord/Nordost

TAF: EGLL 231054Z 2312/2418 32010KT CAVOK BECMG 2415/2418 03005KT

Wetterbeobachtungen und Prognosen von mehr als 4000 Flughäfen (METAR und TAF Bericht).

Die verfügbaren Stationen werden durch gelbe und rote Markierungen auf der Karte dargestellt.

Führen Sie die Maus auf sie, um den Namen der Station zu sehen.

Darauf klicken, um die Beobachtung von Wetterbeobachtungen und Prognosen zu sehen.

Um die Karte zu ändern : klicken Sie auf den grünen Tasten mit einem schwarzen Kreuz Zum Vergrößern, auf den grünen Button mit einem Gedankenstrich zu verkleinern, oder auf die grünen Pfeile für benachbarte Karten.


METAR-TAF: